Time;durP1;ratioP1;P1;durP2;ratioP2;P2;SDS_P1;SDS_P2;PMS_P1;PMS_P2;Temp;Humidity;BMP_temperature;BMP_pressure;BME280_temperature;BME280_humidity;BME280_pressure;Samples;Min_cycle;Max_cycle;Signal;HPM_P1;HPM_P2
2021/07/02 00:00:20;;;;;;;4.85;3.80;;;16.40;93.60;;;;;;2056116;28;20023;-70
2021/07/02 00:01:21;;;;;;;6.00;3.97;;;16.40;93.80;;;;;;2056416;28;20039;-70
2021/07/02 00:02:22;;;;;;;7.13;4.28;;;16.40;93.90;;;;;;2040450;29;20114;-69
2021/07/02 00:03:22;;;;;;;6.70;3.80;;;16.40;93.90;;;;;;2040377;29;20062;-70
2021/07/02 00:04:23;;;;;;;6.55;4.15;;;16.40;93.90;;;;;;2048487;29;20134;-69
2021/07/02 00:05:23;;;;;;;6.85;4.35;;;16.40;93.80;;;;;;2056344;28;20474;-71
2021/07/02 00:06:24;;;;;;;5.80;3.90;;;16.40;94.10;;;;;;2056876;28;20368;-70
2021/07/02 00:07:24;;;;;;;6.63;4.38;;;16.40;93.80;;;;;;2056996;28;20033;-69
2021/07/02 00:08:28;;;;;;;7.85;4.68;;;16.40;93.90;;;;;;2056914;28;20066;-70
2021/07/02 00:09:29;;;;;;;6.30;4.88;;;16.40;93.90;;;;;;2056551;28;20386;-70
2021/07/02 00:10:29;;;;;;;6.60;4.35;;;16.40;94.00;;;;;;2056305;28;20038;-70
2021/07/02 00:11:30;;;;;;;7.20;4.68;;;16.40;94.00;;;;;;2056149;28;20306;-70
2021/07/02 00:12:30;;;;;;;7.20;4.65;;;16.40;94.00;;;;;;2057027;28;20042;-71
2021/07/02 00:13:31;;;;;;;9.68;4.72;;;16.40;93.90;;;;;;2056343;28;20074;-72
2021/07/02 00:14:32;;;;;;;6.82;4.35;;;16.40;94.00;;;;;;2048709;29;20035;-71
2021/07/02 00:15:32;;;;;;;6.90;4.38;;;16.40;94.10;;;;;;2048772;29;20039;-70
2021/07/02 00:16:34;;;;;;;7.13;4.35;;;16.40;94.60;;;;;;2056729;28;20521;-70
2021/07/02 00:17:35;;;;;;;6.72;4.45;;;16.40;94.20;;;;;;2057225;28;20029;-70
2021/07/02 00:18:35;;;;;;;6.05;4.32;;;16.40;94.40;;;;;;2057203;28;20041;-70
2021/07/02 00:19:36;;;;;;;5.75;4.18;;;16.40;94.40;;;;;;2050413;28;20027;-71
2021/07/02 00:20:36;;;;;;;5.18;4.10;;;16.40;94.20;;;;;;2054364;28;20030;-70
2021/07/02 00:21:37;;;;;;;6.70;5.00;;;16.50;94.10;;;;;;2048265;29;20114;-70
2021/07/02 00:22:37;;;;;;;9.02;5.25;;;16.50;94.10;;;;;;2048195;29;20027;-70
2021/07/02 00:23:38;;;;;;;8.13;5.30;;;16.50;94.00;;;;;;2055659;28;20027;-71
2021/07/02 00:24:39;;;;;;;7.68;5.43;;;16.50;93.80;;;;;;2048146;29;20566;-68
2021/07/02 00:25:39;;;;;;;7.50;5.43;;;16.40;93.80;;;;;;2055832;28;20529;-69
2021/07/02 00:26:40;;;;;;;6.68;4.90;;;16.40;94.00;;;;;;2055755;28;20055;-69
2021/07/02 00:27:41;;;;;;;10.43;5.10;;;16.40;94.10;;;;;;2047846;28;20028;-69
2021/07/02 00:28:41;;;;;;;8.10;5.60;;;16.40;94.10;;;;;;2055246;28;20529;-69
2021/07/02 00:29:42;;;;;;;8.77;5.72;;;16.40;94.20;;;;;;2055816;28;20109;-69
2021/07/02 00:30:42;;;;;;;7.75;5.60;;;16.40;94.10;;;;;;2056376;28;20023;-69
2021/07/02 00:31:43;;;;;;;7.45;5.30;;;16.40;94.10;;;;;;2056638;28;20126;-69
2021/07/02 00:32:44;;;;;;;7.00;5.18;;;16.40;94.20;;;;;;2056576;28;20027;-69
2021/07/02 00:33:45;;;;;;;11.40;5.50;;;16.40;94.10;;;;;;2056556;28;20029;-69
2021/07/02 00:34:45;;;;;;;6.82;5.45;;;16.40;94.10;;;;;;2056414;28;20039;-70
2021/07/02 00:35:46;;;;;;;8.18;5.97;;;16.40;94.10;;;;;;2056649;28;20054;-69
2021/07/02 00:36:47;;;;;;;9.15;5.47;;;16.40;94.10;;;;;;2056492;28;20689;-69
2021/07/02 00:37:48;;;;;;;8.20;5.20;;;16.40;94.20;;;;;;2056487;28;20033;-69
2021/07/02 00:38:48;;;;;;;8.52;5.85;;;16.40;94.40;;;;;;2056105;28;20423;-69
2021/07/02 00:39:49;;;;;;;9.07;6.05;;;16.30;94.00;;;;;;2056614;28;20066;-69
2021/07/02 00:40:50;;;;;;;8.00;5.82;;;16.30;94.00;;;;;;2055823;28;20069;-69
2021/07/02 00:41:51;;;;;;;6.55;4.88;;;16.30;94.30;;;;;;2047815;28;20198;-69
2021/07/02 00:42:51;;;;;;;6.95;5.13;;;16.30;94.70;;;;;;2055670;28;20030;-69
2021/07/02 00:43:54;;;;;;;8.02;5.53;;;16.30;94.60;;;;;;2047716;29;20156;-69
2021/07/02 00:44:55;;;;;;;10.52;6.15;;;16.30;94.70;;;;;;2040399;28;20539;-69
2021/07/02 00:45:56;;;;;;;8.25;5.35;;;16.30;94.70;;;;;;2055677;28;20085;-70
2021/07/02 00:46:57;;;;;;;14.02;9.43;;;16.40;94.60;;;;;;2056481;28;20792;-70
2021/07/02 00:47:57;;;;;;;8.75;6.30;;;16.30;94.70;;;;;;2055001;28;20437;-71
2021/07/02 00:48:58;;;;;;;9.38;6.53;;;16.30;94.90;;;;;;2047113;28;20126;-70
2021/07/02 00:50:00;;;;;;;11.63;6.70;;;16.40;95.00;;;;;;2039826;28;20028;-69
2021/07/02 00:51:00;;;;;;;10.82;6.53;;;16.40;95.20;;;;;;2055709;28;20049;-71
2021/07/02 00:52:06;;;;;;;8.20;5.97;;;16.30;94.90;;;;;;2047708;29;20046;-69
2021/07/02 00:53:08;;;;;;;7.53;5.25;;;16.40;95.10;;;;;;2040561;28;20036;-70
2021/07/02 00:54:10;;;;;;;8.93;5.43;;;16.40;95.20;;;;;;2039532;29;20403;-71
2021/07/02 00:55:12;;;;;;;8.23;5.32;;;16.40;94.80;;;;;;2047620;29;20046;-71
2021/07/02 00:56:19;;;;;;;8.45;5.40;;;16.40;94.70;;;;;;2047660;28;20019;-70
2021/07/02 00:57:22;;;;;;;7.45;5.22;;;16.40;94.80;;;;;;2047658;28;20062;-71
2021/07/02 00:58:25;;;;;;;7.65;5.45;;;16.40;94.80;;;;;;2047513;29;20046;-71
2021/07/02 00:59:27;;;;;;;7.55;5.53;;;16.40;94.70;;;;;;2039850;28;20032;-70
2021/07/02 01:00:28;;;;;;;9.25;6.28;;;16.40;94.70;;;;;;2047794;29;20031;-71
2021/07/02 01:01:28;;;;;;;9.25;6.20;;;16.40;94.70;;;;;;2055525;28;20074;-71
2021/07/02 01:02:34;;;;;;;8.38;5.82;;;16.40;95.00;;;;;;2047877;28;20059;-69
2021/07/02 01:03:35;;;;;;;9.85;5.90;;;16.40;94.60;;;;;;2039626;29;20027;-69
2021/07/02 01:04:36;;;;;;;9.13;5.80;;;16.30;94.80;;;;;;2047637;29;20106;-71
2021/07/02 01:05:37;;;;;;;9.57;6.13;;;16.30;94.70;;;;;;2048255;29;20027;-71
2021/07/02 01:06:38;;;;;;;10.88;6.45;;;16.30;95.10;;;;;;2048484;28;20027;-71
2021/07/02 01:07:42;;;;;;;9.52;6.45;;;16.20;95.10;;;;;;2047693;28;20384;-70
2021/07/02 01:08:44;;;;;;;9.60;6.10;;;16.20;95.10;;;;;;2047491;29;20027;-70
2021/07/02 01:09:45;;;;;;;8.23;5.53;;;16.20;95.10;;;;;;2048161;28;20023;-70
2021/07/02 01:10:47;;;;;;;8.02;5.78;;;16.20;95.20;;;;;;2047488;29;20030;-70
2021/07/02 01:11:48;;;;;;;10.25;6.00;;;16.20;95.30;;;;;;2047558;28;20033;-70
2021/07/02 01:12:49;;;;;;;9.63;6.15;;;16.20;95.50;;;;;;2047601;29;20534;-70
2021/07/02 01:13:51;;;;;;;8.73;6.18;;;16.20;95.50;;;;;;2047480;29;20415;-70
2021/07/02 01:14:51;;;;;;;9.02;6.30;;;16.20;95.80;;;;;;2047554;29;20039;-70
2021/07/02 01:15:54;;;;;;;9.23;5.93;;;16.20;95.70;;;;;;2048062;29;20038;-70
2021/07/02 01:16:57;;;;;;;7.65;5.57;;;16.30;95.70;;;;;;2047462;28;20034;-71
2021/07/02 01:17:59;;;;;;;6.78;5.22;;;16.30;95.90;;;;;;2047509;28;20760;-70
2021/07/02 01:19:00;;;;;;;7.53;5.60;;;16.30;95.70;;;;;;2047574;28;20038;-70
2021/07/02 01:20:01;;;;;;;8.73;5.55;;;16.30;95.60;;;;;;2056072;28;20057;-69
2021/07/02 01:21:06;;;;;;;8.05;5.47;;;16.30;95.60;;;;;;2056288;28;20018;-69
2021/07/02 01:22:07;;;;;;;7.47;5.78;;;16.30;95.50;;;;;;2056286;28;20031;-69
2021/07/02 01:23:09;;;;;;;8.65;6.20;;;16.40;95.50;;;;;;2056033;28;20029;-69
2021/07/02 01:24:10;;;;;;;9.05;6.15;;;16.40;95.70;;;;;;2056274;28;20110;-69
2021/07/02 01:25:12;;;;;;;8.27;5.70;;;16.40;95.50;;;;;;2055594;28;20038;-69
2021/07/02 01:26:14;;;;;;;9.00;6.50;;;16.40;95.50;;;;;;2055583;28;20110;-70
2021/07/02 01:27:15;;;;;;;10.32;6.35;;;16.40;95.30;;;;;;2055828;28;20106;-69
2021/07/02 01:28:17;;;;;;;10.15;7.10;;;16.40;95.40;;;;;;2047422;28;20023;-69
2021/07/02 01:29:19;;;;;;;10.90;6.80;;;16.40;95.50;;;;;;2047228;28;20081;-71
2021/07/02 01:30:20;;;;;;;10.70;7.03;;;16.30;95.40;;;;;;2055625;28;20066;-70
2021/07/02 01:31:21;;;;;;;8.82;6.32;;;16.30;95.50;;;;;;2055434;28;20073;-69
2021/07/02 01:32:22;;;;;;;10.70;6.90;;;16.30;95.70;;;;;;2055534;28;20054;-70
2021/07/02 01:33:23;;;;;;;10.57;6.88;;;16.30;95.80;;;;;;2047474;28;20557;-69
2021/07/02 01:34:24;;;;;;;9.43;6.38;;;16.30;95.80;;;;;;2047433;28;20039;-71
2021/07/02 01:35:26;;;;;;;10.60;6.95;;;16.30;95.90;;;;;;2055469;28;20023;-71
2021/07/02 01:36:27;;;;;;;10.07;6.97;;;16.30;96.10;;;;;;2055920;28;20027;-69
2021/07/02 01:37:34;;;;;;;11.98;7.15;;;16.30;96.10;;;;;;2055409;28;20061;-69
2021/07/02 01:38:36;;;;;;;10.30;6.78;;;16.20;96.30;;;;;;2055378;28;20050;-70
2021/07/02 01:39:37;;;;;;;8.88;5.95;;;16.20;96.40;;;;;;2055214;28;20106;-69
2021/07/02 01:40:39;;;;;;;10.45;7.00;;;16.30;96.50;;;;;;2047595;28;20033;-69
2021/07/02 01:41:40;;;;;;;9.15;6.55;;;16.30;96.20;;;;;;2055516;28;20023;-70
2021/07/02 01:42:40;;;;;;;10.05;6.35;;;16.30;96.30;;;;;;2055450;28;20033;-69
2021/07/02 01:43:42;;;;;;;8.73;6.55;;;16.30;96.30;;;;;;2047530;28;20020;-69
2021/07/02 01:44:46;;;;;;;8.75;6.68;;;16.30;96.20;;;;;;2040158;29;20031;-69
2021/07/02 01:45:49;;;;;;;10.35;7.13;;;16.30;96.00;;;;;;2048392;28;20059;-70
2021/07/02 01:46:51;;;;;;;10.93;6.85;;;16.30;96.10;;;;;;2055444;28;20045;-70
2021/07/02 01:47:52;;;;;;;10.77;6.57;;;16.20;96.50;;;;;;2055538;28;20022;-69
2021/07/02 01:48:55;;;;;;;9.25;6.45;;;16.20;96.50;;;;;;2054067;28;20031;-71
2021/07/02 01:49:58;;;;;;;11.88;7.38;;;16.20;96.40;;;;;;2055607;28;20027;-70
2021/07/02 01:51:01;;;;;;;12.68;7.30;;;16.20;96.00;;;;;;2063295;28;20018;-70
2021/07/02 01:52:03;;;;;;;11.02;6.88;;;16.20;96.20;;;;;;2055627;28;20030;-71
2021/07/02 01:53:04;;;;;;;12.93;6.55;;;16.20;96.40;;;;;;2047647;28;20027;-71
2021/07/02 01:54:06;;;;;;;9.60;6.50;;;16.20;96.60;;;;;;2047834;28;20027;-70
2021/07/02 01:55:08;;;;;;;10.40;6.72;;;16.20;96.80;;;;;;2055472;28;20034;-70
2021/07/02 01:56:10;;;;;;;12.40;6.57;;;16.20;96.60;;;;;;2055504;28;20027;-71
2021/07/02 01:57:21;;;;;;;8.48;6.00;;;16.20;96.80;;;;;;2047813;28;20114;-71
2021/07/02 01:58:23;;;;;;;8.98;5.60;;;16.20;96.60;;;;;;2048783;28;20089;-70
2021/07/02 01:59:34;;;;;;;;;;;16.20;96.60;;;;;;2049595;28;20062;-71
2021/07/02 02:00:38;;;;;;;9.07;5.60;;;16.20;96.50;;;;;;2049590;28;19910;-71
2021/07/02 02:01:47;;;;;;;7.75;5.25;;;16.20;96.60;;;;;;2049639;28;20031;-71
2021/07/02 02:02:51;;;;;;;7.60;5.68;;;16.20;96.60;;;;;;2049686;28;20541;-71
2021/07/02 02:03:53;;;;;;;8.38;5.72;;;16.20;96.70;;;;;;2057064;28;20038;-71
2021/07/02 02:04:57;;;;;;;9.52;6.07;;;16.20;96.30;;;;;;2057461;28;20122;-71
2021/07/02 02:05:58;;;;;;;9.40;5.75;;;16.30;96.40;;;;;;2056842;28;20065;-70
2021/07/02 02:06:59;;;;;;;8.82;5.57;;;16.30;96.20;;;;;;2056922;28;20027;-71
2021/07/02 02:08:00;;;;;;;9.20;5.80;;;16.30;96.20;;;;;;2056880;28;20101;-71
2021/07/02 02:09:02;;;;;;;8.73;5.43;;;16.30;96.30;;;;;;2056479;28;20434;-71
2021/07/02 02:10:06;;;;;;;10.85;6.40;;;16.30;96.50;;;;;;2049081;28;20042;-71
2021/07/02 02:11:08;;;;;;;8.50;5.97;;;16.20;96.90;;;;;;2049026;28;20114;-70
2021/07/02 02:12:14;;;;;;;11.15;6.05;;;16.20;97.20;;;;;;2056978;28;20037;-70
2021/07/02 02:13:21;;;;;;;8.32;5.47;;;16.20;97.40;;;;;;2056866;28;20038;-70
2021/07/02 02:14:28;;;;;;;9.23;5.72;;;16.20;97.40;;;;;;2049648;28;20051;-69
2021/07/02 02:15:32;;;;;;;6.95;5.25;;;16.20;97.70;;;;;;2056887;28;20109;-70
2021/07/02 02:16:33;;;;;;;6.80;4.93;;;16.20;98.00;;;;;;2057289;28;20453;-70
2021/07/02 02:17:42;;;;;;;7.18;5.55;;;16.20;98.00;;;;;;2056869;28;20058;-69
2021/07/02 02:18:42;;;;;;;7.35;5.28;;;16.30;98.40;;;;;;2048634;28;20055;-69
2021/07/02 02:19:43;;;;;;;8.85;5.75;;;16.30;98.40;;;;;;2055823;28;20031;-69
2021/07/02 02:20:44;;;;;;;10.52;5.72;;;16.30;98.10;;;;;;2056824;28;20550;-69
2021/07/02 02:21:45;;;;;;;7.35;4.88;;;16.20;98.30;;;;;;2056954;28;20040;-69
2021/07/02 02:22:46;;;;;;;7.32;4.95;;;16.20;97.90;;;;;;2048861;28;20028;-69
2021/07/02 02:23:47;;;;;;;8.13;5.40;;;16.20;98.00;;;;;;2040963;28;20563;-69
2021/07/02 02:24:48;;;;;;;9.55;5.40;;;16.20;97.90;;;;;;2040904;28;20027;-69
2021/07/02 02:25:51;;;;;;;7.20;5.10;;;16.10;98.10;;;;;;2049069;28;20031;-70
2021/07/02 02:26:52;;;;;;;8.20;5.00;;;16.10;98.40;;;;;;2056825;28;20420;-70
2021/07/02 02:27:52;;;;;;;10.68;5.30;;;16.10;98.00;;;;;;2057470;28;20473;-69
2021/07/02 02:28:53;;;;;;;9.32;5.00;;;16.00;97.80;;;;;;2057054;28;20114;-69
2021/07/02 02:29:53;;;;;;;7.82;5.38;;;16.00;98.10;;;;;;2057390;28;20030;-70
2021/07/02 02:30:54;;;;;;;8.10;4.97;;;16.00;99.00;;;;;;2056786;28;20031;-70
2021/07/02 02:31:55;;;;;;;7.85;5.20;;;16.00;98.80;;;;;;2048636;28;20138;-70
2021/07/02 02:32:57;;;;;;;6.95;5.00;;;15.90;99.20;;;;;;2056766;28;20145;-69
2021/07/02 02:34:03;;;;;;;8.75;4.70;;;15.90;99.40;;;;;;2056836;28;20033;-69
2021/07/02 02:35:04;;;;;;;7.90;4.78;;;15.90;99.90;;;;;;2056686;28;20034;-71
2021/07/02 02:36:05;;;;;;;6.53;4.40;;;15.90;99.80;;;;;;2048398;29;20126;-69
2021/07/02 02:37:07;;;;;;;5.97;4.10;;;15.90;99.60;;;;;;2048893;28;20035;-69
2021/07/02 02:38:09;;;;;;;6.65;4.00;;;15.90;99.70;;;;;;2048847;28;20031;-69
2021/07/02 02:39:10;;;;;;;6.38;3.97;;;15.90;99.90;;;;;;2056294;28;20486;-69
2021/07/02 02:40:12;;;;;;;6.55;4.20;;;15.90;99.90;;;;;;2056848;28;20038;-70
2021/07/02 02:41:13;;;;;;;6.55;3.70;;;16.00;99.90;;;;;;2048970;28;20023;-69
2021/07/02 02:42:14;;;;;;;4.28;3.58;;;15.90;99.90;;;;;;2049148;28;20118;-70
2021/07/02 02:43:15;;;;;;;5.05;3.97;;;16.00;99.90;;;;;;2049387;28;20027;-69
2021/07/02 02:44:17;;;;;;;6.53;3.55;;;16.00;99.90;;;;;;2049872;28;20086;-69
2021/07/02 02:45:18;;;;;;;5.72;3.90;;;16.00;99.90;;;;;;2049991;28;20023;-71
2021/07/02 02:46:19;;;;;;;5.53;3.90;;;15.90;99.90;;;;;;2057717;28;20050;-71
2021/07/02 02:47:20;;;;;;;6.07;3.72;;;15.90;99.90;;;;;;2057804;28;20027;-71
2021/07/02 02:48:21;;;;;;;4.85;3.42;;;15.90;99.90;;;;;;2056971;28;20573;-71
2021/07/02 02:49:22;;;;;;;5.32;3.40;;;15.90;99.90;;;;;;2040675;29;20027;-71
2021/07/02 02:50:22;;;;;;;5.30;3.35;;;15.90;99.90;;;;;;2044720;29;20031;-71
2021/07/02 02:51:24;;;;;;;4.10;3.13;;;15.90;99.90;;;;;;2048733;28;20130;-71
2021/07/02 02:52:24;;;;;;;4.40;3.15;;;15.90;99.90;;;;;;2056819;28;20031;-71
2021/07/02 02:53:26;;;;;;;4.80;3.50;;;15.90;99.90;;;;;;2056540;28;20037;-71
2021/07/02 02:54:28;;;;;;;6.18;3.40;;;15.90;99.90;;;;;;2048852;28;20395;-71
2021/07/02 02:55:28;;;;;;;4.88;3.38;;;15.90;99.90;;;;;;2048858;29;20110;-71
2021/07/02 02:56:29;;;;;;;5.60;3.47;;;15.90;99.90;;;;;;2048547;28;20487;-71
2021/07/02 02:57:32;;;;;;;4.90;3.60;;;15.90;99.90;;;;;;2040951;29;20033;-71
2021/07/02 02:58:32;;;;;;;7.43;3.92;;;15.80;99.90;;;;;;2048806;28;20636;-71
2021/07/02 02:59:37;;;;;;;4.18;3.33;;;15.80;99.90;;;;;;2056148;28;20030;-71
2021/07/02 03:00:39;;;;;;;5.45;3.53;;;15.80;99.90;;;;;;2049062;28;20038;-71
2021/07/02 03:01:40;;;;;;;6.45;3.30;;;15.80;99.90;;;;;;2048358;28;20082;-71
2021/07/02 03:02:41;;;;;;;4.65;3.10;;;15.70;99.90;;;;;;2056441;28;20558;-71
2021/07/02 03:03:42;;;;;;;4.50;3.30;;;15.80;99.90;;;;;;2056587;28;20035;-71
2021/07/02 03:04:47;;;;;;;3.90;3.05;;;15.80;99.90;;;;;;2056898;28;20026;-71
2021/07/02 03:05:48;;;;;;;5.57;3.00;;;15.80;99.90;;;;;;2056693;28;20035;-71
2021/07/02 03:06:49;;;;;;;4.93;3.35;;;15.80;99.90;;;;;;2048892;28;20024;-71
2021/07/02 03:07:54;;;;;;;4.20;3.00;;;15.80;99.90;;;;;;2056960;28;20038;-71
2021/07/02 03:08:55;;;;;;;4.75;3.10;;;15.80;99.90;;;;;;2056507;28;20134;-71
2021/07/02 03:09:56;;;;;;;3.83;2.70;;;15.80;99.90;;;;;;2056832;28;20046;-71
2021/07/02 03:10:57;;;;;;;3.67;2.70;;;15.80;99.90;;;;;;2056040;28;20081;-72
2021/07/02 03:11:59;;;;;;;4.35;2.83;;;15.80;99.90;;;;;;2056403;28;20449;-71
2021/07/02 03:13:01;;;;;;;5.03;3.10;;;15.90;99.90;;;;;;2056769;28;20146;-71
2021/07/02 03:14:02;;;;;;;4.70;2.90;;;15.80;99.90;;;;;;2048582;29;20047;-70
2021/07/02 03:15:04;;;;;;;3.25;2.58;;;15.80;99.90;;;;;;2032800;29;20642;-71
2021/07/02 03:16:05;;;;;;;3.90;2.70;;;15.80;99.90;;;;;;2048816;28;20037;-71
2021/07/02 03:17:13;;;;;;;3.70;3.03;;;15.80;99.90;;;;;;2056174;28;20049;-71
2021/07/02 03:18:17;;;;;;;4.03;2.70;;;15.80;99.90;;;;;;2056507;28;20022;-71
2021/07/02 03:19:19;;;;;;;2.90;2.60;;;15.80;99.90;;;;;;2055855;28;20459;-71
2021/07/02 03:20:21;;;;;;;3.75;2.80;;;15.80;99.90;;;;;;2048458;28;20099;-71
2021/07/02 03:21:21;;;;;;;4.40;2.67;;;15.80;99.90;;;;;;2056205;28;20035;-71
2021/07/02 03:22:22;;;;;;;3.28;2.70;;;15.80;99.90;;;;;;2057110;28;20026;-71
2021/07/02 03:23:24;;;;;;;3.75;2.72;;;15.80;99.90;;;;;;2056442;28;20031;-70
2021/07/02 03:24:25;;;;;;;2.90;2.42;;;15.80;99.90;;;;;;2056594;28;20026;-71
2021/07/02 03:25:26;;;;;;;3.50;2.50;;;15.80;99.90;;;;;;2056515;28;20063;-70
2021/07/02 03:26:27;;;;;;;3.38;2.45;;;15.80;99.90;;;;;;2056644;28;20465;-70
2021/07/02 03:27:28;;;;;;;3.25;2.45;;;15.80;99.90;;;;;;2056410;28;20041;-70
2021/07/02 03:28:32;;;;;;;2.78;2.50;;;15.80;99.90;;;;;;2056099;28;20033;-69
2021/07/02 03:29:33;;;;;;;4.07;2.67;;;15.80;99.90;;;;;;2048412;28;20478;-70
2021/07/02 03:30:34;;;;;;;2.67;2.30;;;15.80;99.90;;;;;;2056380;28;20627;-70
2021/07/02 03:31:36;;;;;;;3.08;2.47;;;15.80;99.90;;;;;;2056360;28;20038;-70
2021/07/02 03:32:37;;;;;;;3.20;2.60;;;15.80;99.90;;;;;;2040278;29;20035;-70
2021/07/02 03:33:37;;;;;;;2.83;2.40;;;15.80;99.90;;;;;;2048336;29;20120;-70
2021/07/02 03:34:38;;;;;;;2.97;2.50;;;15.80;99.90;;;;;;2056314;28;20062;-70
2021/07/02 03:35:39;;;;;;;2.65;2.38;;;15.80;99.90;;;;;;2048263;28;20031;-70
2021/07/02 03:36:43;;;;;;;3.53;2.28;;;15.80;99.90;;;;;;2048759;28;20067;-70
2021/07/02 03:37:44;;;;;;;3.20;2.17;;;15.80;99.90;;;;;;2048597;28;20051;-69
2021/07/02 03:38:44;;;;;;;2.75;2.28;;;15.80;99.90;;;;;;2055883;28;20101;-70
2021/07/02 03:39:45;;;;;;;2.92;2.20;;;15.80;99.90;;;;;;2056959;28;20027;-70
2021/07/02 03:40:48;;;;;;;2.33;2.13;;;15.80;99.90;;;;;;2056979;28;20058;-69
2021/07/02 03:41:50;;;;;;;2.75;2.00;;;15.80;99.90;;;;;;2056150;28;20115;-70
2021/07/02 03:42:51;;;;;;;2.10;1.90;;;15.80;99.90;;;;;;2056089;28;20033;-69
2021/07/02 03:43:52;;;;;;;2.28;1.80;;;15.80;99.90;;;;;;2056141;28;20031;-69
2021/07/02 03:44:53;;;;;;;2.53;1.85;;;15.80;99.90;;;;;;2048335;28;20066;-69
2021/07/02 03:45:54;;;;;;;2.90;1.80;;;15.80;99.90;;;;;;2048185;28;20422;-69
2021/07/02 03:46:55;;;;;;;2.63;2.00;;;15.80;99.90;;;;;;2048234;28;20035;-69
2021/07/02 03:47:56;;;;;;;2.67;2.08;;;15.80;99.90;;;;;;2048211;29;20038;-69
2021/07/02 03:48:57;;;;;;;2.03;1.67;;;15.80;99.90;;;;;;2054832;28;20042;-69
2021/07/02 03:49:59;;;;;;;2.47;1.67;;;15.80;99.90;;;;;;2056269;28;20026;-69
2021/07/02 03:50:59;;;;;;;2.20;2.00;;;15.80;99.90;;;;;;2048276;28;20031;-70
2021/07/02 03:52:01;;;;;;;2.28;2.00;;;15.80;99.90;;;;;;2048350;28;20055;-70
2021/07/02 03:53:01;;;;;;;3.05;1.90;;;15.80;99.90;;;;;;2056347;28;20026;-71
2021/07/02 03:54:02;;;;;;;2.08;1.80;;;15.80;99.90;;;;;;2056388;28;20824;-71
2021/07/02 03:55:03;;;;;;;3.63;1.63;;;15.80;99.90;;;;;;2056384;28;20042;-71
2021/07/02 03:56:06;;;;;;;1.95;1.65;;;15.80;99.90;;;;;;2056981;28;20116;-71
2021/07/02 03:57:13;;;;;;;2.38;1.60;;;15.80;99.90;;;;;;2056352;28;20113;-70
2021/07/02 03:58:13;;;;;;;2.40;1.73;;;15.80;99.90;;;;;;2056405;28;20031;-70
2021/07/02 03:59:14;;;;;;;2.20;1.80;;;15.80;99.90;;;;;;2056368;28;20030;-70
2021/07/02 04:00:15;;;;;;;1.60;1.50;;;15.80;99.90;;;;;;2056548;28;20010;-69
2021/07/02 04:01:17;;;;;;;1.80;1.50;;;15.80;99.90;;;;;;2048231;28;20134;-71
2021/07/02 04:02:18;;;;;;;2.88;1.45;;;15.80;99.90;;;;;;2048349;28;20699;-70
2021/07/02 04:03:19;;;;;;;2.15;1.60;;;15.80;99.90;;;;;;2056826;28;20023;-70
2021/07/02 04:04:21;;;;;;;1.75;1.45;;;15.70;99.90;;;;;;2048197;29;20031;-70
2021/07/02 04:05:26;;;;;;;1.80;1.60;;;15.70;99.90;;;;;;2040478;28;20058;-70
2021/07/02 04:06:27;;;;;;;2.25;1.50;;;15.80;99.90;;;;;;2048652;28;20034;-69
2021/07/02 04:07:28;;;;;;;2.83;1.58;;;15.70;99.90;;;;;;2048125;28;20023;-70
2021/07/02 04:08:32;;;;;;;2.25;1.77;;;15.80;99.90;;;;;;2048328;28;20031;-70
2021/07/02 04:09:35;;;;;;;1.42;1.33;;;15.80;99.90;;;;;;2055645;28;20026;-70
2021/07/02 04:10:36;;;;;;;1.70;1.60;;;15.70;99.90;;;;;;2056029;28;20067;-70
2021/07/02 04:11:39;;;;;;;2.22;1.42;;;15.70;99.90;;;;;;2055978;28;20078;-71
2021/07/02 04:12:40;;;;;;;1.77;1.30;;;15.70;99.90;;;;;;2056009;28;20042;-71
2021/07/02 04:13:40;;;;;;;1.67;1.30;;;15.70;99.90;;;;;;2055904;28;20121;-70
2021/07/02 04:14:41;;;;;;;2.08;1.70;;;15.70;99.90;;;;;;2055886;28;20046;-70
2021/07/02 04:15:42;;;;;;;1.67;1.35;;;15.70;99.90;;;;;;2056589;28;20023;-71
2021/07/02 04:16:43;;;;;;;1.65;1.38;;;15.70;99.90;;;;;;2056647;28;20039;-70
2021/07/02 04:17:46;;;;;;;1.88;1.30;;;15.70;99.90;;;;;;2055921;28;20031;-71
2021/07/02 04:18:47;;;;;;;1.95;1.40;;;15.70;99.90;;;;;;2055712;28;20034;-70
2021/07/02 04:19:51;;;;;;;1.40;1.30;;;15.70;99.90;;;;;;2055210;28;20092;-71
2021/07/02 04:20:55;;;;;;;2.60;1.33;;;15.70;99.90;;;;;;2055360;28;20510;-71
2021/07/02 04:21:55;;;;;;;1.70;1.40;;;15.70;99.90;;;;;;2056104;28;20682;-71
2021/07/02 04:22:56;;;;;;;1.77;1.30;;;15.70;99.90;;;;;;2055905;28;20042;-71
2021/07/02 04:23:57;;;;;;;1.67;1.38;;;15.70;99.90;;;;;;2047920;28;20074;-71
2021/07/02 04:25:08;;;;;;;2.30;1.30;;;15.70;99.90;;;;;;2040010;29;20127;-70
2021/07/02 04:26:09;;;;;;;2.25;1.30;;;15.70;99.90;;;;;;2049678;28;20019;-69
2021/07/02 04:27:13;;;;;;;1.88;1.30;;;15.70;99.90;;;;;;2057110;28;20031;-70
2021/07/02 04:28:14;;;;;;;1.65;1.27;;;15.70;99.90;;;;;;2048076;29;20027;-71
2021/07/02 04:29:17;;;;;;;2.20;1.40;;;15.60;99.90;;;;;;2047771;29;20035;-71
2021/07/02 04:30:18;;;;;;;1.63;1.30;;;15.60;99.90;;;;;;2048102;29;20023;-70
2021/07/02 04:31:22;;;;;;;1.40;1.30;;;15.60;99.90;;;;;;2048084;28;20034;-70
2021/07/02 04:32:22;;;;;;;1.38;1.27;;;15.60;99.90;;;;;;2048064;29;20038;-72
2021/07/02 04:33:23;;;;;;;1.85;1.20;;;15.60;99.90;;;;;;2048267;29;20041;-70
2021/07/02 04:34:23;;;;;;;2.15;1.40;;;15.60;99.90;;;;;;2056778;28;20033;-71
2021/07/02 04:35:24;;;;;;;2.70;1.58;;;15.60;99.90;;;;;;2056850;28;20097;-71
2021/07/02 04:36:25;;;;;;;1.85;1.20;;;15.60;99.90;;;;;;2056641;28;20030;-70
2021/07/02 04:37:25;;;;;;;1.75;1.40;;;15.60;99.90;;;;;;2055997;28;20065;-71
2021/07/02 04:38:26;;;;;;;1.67;1.38;;;15.60;99.90;;;;;;2039972;29;20023;-71
2021/07/02 04:39:27;;;;;;;1.45;1.17;;;15.50;99.90;;;;;;2048092;29;20036;-71
2021/07/02 04:40:28;;;;;;;2.45;1.40;;;15.60;99.90;;;;;;2040285;29;20531;-70
2021/07/02 04:41:28;;;;;;;1.20;1.10;;;15.60;99.90;;;;;;2040586;29;20432;-71
2021/07/02 04:42:29;;;;;;;1.30;1.20;;;15.50;99.90;;;;;;2056271;28;20026;-69
2021/07/02 04:43:29;;;;;;;2.60;1.23;;;15.50;99.90;;;;;;2056161;28;20030;-70
2021/07/02 04:44:30;;;;;;;2.33;1.00;;;15.50;99.90;;;;;;2056193;28;20076;-71
2021/07/02 04:45:31;;;;;;;2.33;1.20;;;15.50;99.90;;;;;;2057034;28;20050;-71
2021/07/02 04:46:32;;;;;;;1.52;1.10;;;15.50;99.90;;;;;;2048386;28;20035;-70
2021/07/02 04:47:33;;;;;;;1.55;1.27;;;15.60;99.90;;;;;;2040577;29;20106;-70
2021/07/02 04:48:33;;;;;;;2.67;1.30;;;15.60;99.90;;;;;;2056857;28;20699;-71
2021/07/02 04:49:34;;;;;;;1.38;1.10;;;15.60;99.90;;;;;;2056032;28;20061;-69
2021/07/02 04:50:35;;;;;;;1.98;1.10;;;15.60;99.90;;;;;;2057238;28;20039;-71
2021/07/02 04:51:36;;;;;;;1.00;1.00;;;15.60;99.90;;;;;;2056753;28;20093;-71
2021/07/02 04:52:37;;;;;;;1.17;1.00;;;15.60;99.90;;;;;;2048630;29;20091;-71
2021/07/02 04:53:37;;;;;;;1.25;1.00;;;15.60;99.90;;;;;;2047892;28;20058;-70
2021/07/02 04:54:38;;;;;;;1.05;1.00;;;15.60;99.90;;;;;;2056165;28;20117;-71
2021/07/02 04:55:38;;;;;;;1.63;1.10;;;15.60;99.90;;;;;;2056201;28;20046;-71
2021/07/02 04:56:39;;;;;;;1.15;1.02;;;15.60;99.90;;;;;;2055894;28;20034;-70
2021/07/02 04:57:40;;;;;;;1.60;1.00;;;15.50;99.90;;;;;;2055916;28;20502;-70
2021/07/02 04:58:42;;;;;;;0.90;0.90;;;15.50;99.90;;;;;;2055570;28;20042;-70
2021/07/02 04:59:45;;;;;;;2.28;1.20;;;15.50;99.90;;;;;;2055748;28;20518;-70
2021/07/02 05:00:46;;;;;;;1.38;1.00;;;15.50;99.90;;;;;;2056310;28;20031;-70
2021/07/02 05:01:47;;;;;;;1.27;1.05;;;15.50;99.90;;;;;;2055836;28;20122;-70
2021/07/02 05:02:47;;;;;;;1.42;1.00;;;15.50;99.90;;;;;;2055612;28;20122;-70
2021/07/02 05:03:49;;;;;;;1.10;1.00;;;15.50;99.90;;;;;;2056468;28;20027;-70
2021/07/02 05:04:49;;;;;;;1.70;1.00;;;15.50;99.90;;;;;;2055688;28;20138;-70
2021/07/02 05:05:50;;;;;;;1.20;1.10;;;15.50;99.90;;;;;;2055612;28;20039;-70
2021/07/02 05:06:51;;;;;;;1.38;1.27;;;15.50;99.90;;;;;;2056122;28;20042;-71
2021/07/02 05:07:51;;;;;;;1.83;1.20;;;15.50;99.90;;;;;;2056249;28;20027;-70
2021/07/02 05:08:52;;;;;;;2.22;1.30;;;15.50;99.90;;;;;;2056006;28;20479;-71
2021/07/02 05:09:53;;;;;;;1.70;1.40;;;15.50;99.90;;;;;;2056145;28;20035;-71
2021/07/02 05:10:53;;;;;;;1.30;1.20;;;15.50;99.90;;;;;;2056207;28;20062;-70
2021/07/02 05:11:54;;;;;;;1.42;1.33;;;15.50;99.90;;;;;;2055743;28;20581;-71
2021/07/02 05:12:54;;;;;;;1.77;1.20;;;15.50;99.90;;;;;;2055700;28;20038;-70
2021/07/02 05:13:55;;;;;;;2.70;1.35;;;15.50;99.90;;;;;;2055803;28;20029;-70
2021/07/02 05:14:56;;;;;;;1.52;1.10;;;15.60;99.90;;;;;;2047663;29;20721;-71
2021/07/02 05:15:57;;;;;;;1.40;1.30;;;15.60;99.90;;;;;;2048205;29;20079;-71
2021/07/02 05:16:57;;;;;;;1.33;1.23;;;15.60;99.90;;;;;;2055966;28;20169;-72
2021/07/02 05:17:58;;;;;;;1.83;1.40;;;15.60;99.90;;;;;;2056094;28;20031;-72
2021/07/02 05:18:58;;;;;;;2.08;1.60;;;15.60;99.90;;;;;;2055071;28;20507;-71
2021/07/02 05:19:59;;;;;;;3.13;1.67;;;15.60;99.90;;;;;;2047545;29;20071;-72